Etusivu
METAR-TAF:

METAR-TAF

Lentoasemat :

Pohnpei, Mikronesia

Leveyspiiri: 06-59N, Pituuspiiri: 158-12E, korkeus merenpinnasta: 2 m

Tämänhetkinen sää

Tämä raportti tehtiin 27 minuuttia sitten, kello 00.50 UTC
Tuuli 7 kn lännestä
Lämpötila 31°C
Kosteus 71%
Ilmanpaine 1010 hPa
Näkyvyys: 24.1 km
Hajanaisia pilviä 1800 ft:n korkeudessa, Kasvava cumulus-pilvi.
Hajonneita pilviä 30000 ft:n korkeudessa

METAR: PTPN 190050Z 27007KT 15SM SCT018TCU BKN300 31/25 A2982 RMK TCU SE-S

Aika: 12:17 (01:17 UTC)

Sääennuste

Tämä raportti tehtiin 1 tunti ja 45 minuuttia sitten, kello 23.32 UTC
Ennuste voimassa 19. päivästä klo 00 UTC - 19. päivään klo 24 UTC
Tuuli 6 kn etelästä/lounaasta
Näkyvyys: 10 km
Hajanaisia pilviä 1800 ft:n korkeudessa
Hajanaisia pilviä 13000 ft:n korkeudessa

TAF: PTPN 182332Z 1900/1924 21006KT P6SM SCT018 SCT130

Säähavainnot ja -ennusteet yli 4000 lentoasemalta (METAR- ja TAF-raportit).

Käytössä olevat sääasemat on merkitty karttaan keltaisilla ja punaisilla pisteillä.

Aseta hiiri pisteen päälle nähdäksesi sääaseman nimen.

Klikkaa sitten nähdäksesi säähavainnot ja -ennusteet.

Kartan vaihtaminen: klikkaa mustalla rastilla varustettuja vihreitä pisteitä, niin voit zoomata sisään; viivalla varustettua vihreää pistettä, niin voit zoomata ulos tai vihreitä nuolia, niin pääset viereisille kartoille.


METAR-TAF: